Time;durP1;ratioP1;P1;durP2;ratioP2;P2;SDS_P1;SDS_P2;PMS_P1;PMS_P2;Temp;Humidity;BMP_temperature;BMP_pressure;BME280_temperature;BME280_humidity;BME280_pressure;Samples;Min_cycle;Max_cycle;Signal;HPM_P1;HPM_P2
2021/12/11 00:01:18;;;;;;;;;;;-2.00;99.90;;;;;;5075745;28;19924;-77
2021/12/11 00:03:46;;;;;;;;;;;-1.50;99.90;;;;;;5076029;28;19966;-78
2021/12/11 00:06:14;;;;;;;;;;;-2.00;99.90;;;;;;5076013;28;19920;-78
2021/12/11 00:08:39;;;;;;;;;;;-2.00;99.90;;;;;;5075558;28;19927;-77
2021/12/11 00:11:07;;;;;;;;;;;1.10;99.90;;;;;;5075420;28;19921;-78
2021/12/11 00:13:36;;;;;;;;;;;-2.30;99.90;;;;;;5075578;28;19921;-76
2021/12/11 00:16:02;;;;;;;;;;;-2.00;99.90;;;;;;5074719;28;20019;-79
2021/12/11 00:18:29;;;;;;;;;;;-2.10;99.90;;;;;;5075125;28;20407;-79
2021/12/11 00:21:03;;;;;;;;;;;-2.00;99.90;;;;;;5075325;28;19981;-76
2021/12/11 00:23:37;;;;;;;;;;;-2.10;99.90;;;;;;5075422;28;19929;-77
2021/12/11 00:26:03;;;;;;;;;;;-2.10;99.90;;;;;;5075344;28;20011;-78
2021/12/11 00:28:28;;;;;;;;;;;-2.30;99.90;;;;;;5075156;28;19920;-77
2021/12/11 00:30:54;;;;;;;;;;;-2.20;99.90;;;;;;5075107;28;19920;-77
2021/12/11 00:33:22;;;;;;;;;;;-2.30;99.90;;;;;;5075058;28;19920;-77
2021/12/11 00:35:48;;;;;;;;;;;-2.20;99.90;;;;;;5075276;28;19968;-77
2021/12/11 00:38:16;;;;;;;;;;;-2.20;99.90;;;;;;5074908;28;20372;-78
2021/12/11 00:40:43;;;;;;;;;;;-2.80;99.90;;;;;;5074989;28;19967;-76
2021/12/11 00:43:12;;;;;;;;;;;-1.90;99.90;;;;;;5074667;28;20019;-77
2021/12/11 00:45:38;;;;;;;;;;;-2.20;99.90;;;;;;5074872;28;20356;-76
2021/12/11 00:48:06;;;;;;;;;;;-2.20;99.90;;;;;;5074495;28;20369;-77
2021/12/11 00:50:34;;;;;;;;;;;-2.20;99.90;;;;;;5057271;28;20440;-78
2021/12/11 00:53:05;;;;;;;;;;;-2.20;99.90;;;;;;5074687;28;19924;-77
2021/12/11 00:55:33;;;;;;;;;;;-2.20;99.90;;;;;;5074649;28;19971;-76
2021/12/11 00:58:07;;;;;;;;;;;-2.30;99.90;;;;;;5074639;28;19927;-77
2021/12/11 01:00:35;;;;;;;;;;;-2.20;99.90;;;;;;5074850;28;19924;-78
2021/12/11 01:03:00;;;;;;;;;;;-2.40;99.90;;;;;;5074571;28;19921;-77
2021/12/11 01:05:32;;;;;;;;;;;-2.20;99.90;;;;;;5074519;28;19920;-78
2021/12/11 01:07:57;;;;;;;;;;;-2.20;99.90;;;;;;5074533;28;19997;-76
2021/12/11 01:10:25;;;;;;;;;;;-2.40;99.90;;;;;;5074343;28;20388;-78
2021/12/11 01:12:59;;;;;;;;;;;-2.30;99.90;;;;;;5074368;28;20005;-77
2021/12/11 01:15:44;;;;;;;;;;;-2.30;99.90;;;;;;5074355;28;19927;-78
2021/12/11 01:21:01;;;;;;;;;;;-2.30;99.90;;;;;;5074313;28;19920;-76
2021/12/11 01:23:47;;;;;;;;;;;-2.40;99.90;;;;;;5074610;28;19982;-77
2021/12/11 01:26:17;;;;;;;;;;;-2.40;99.90;;;;;;5073998;28;19920;-77
2021/12/11 01:28:43;;;;;;;;;;;-2.40;99.90;;;;;;5073885;28;20006;-78
2021/12/11 01:31:11;;;;;;;;;;;-2.50;99.90;;;;;;5074073;28;20391;-76
2021/12/11 01:33:37;;;;;;;;;;;-2.50;99.90;;;;;;5074596;28;19978;-77
2021/12/11 01:36:04;;;;;;;;;;;-2.50;99.90;;;;;;5074143;28;20360;-77
2021/12/11 01:38:30;;;;;;;;;;;-2.50;99.90;;;;;;5074437;28;19927;-76
2021/12/11 01:41:01;;;;;;;;;;;-2.80;99.90;;;;;;5074098;28;19920;-76
2021/12/11 01:43:28;;;;;;;;;;;-2.50;99.90;;;;;;5073944;28;19928;-76
2021/12/11 01:45:55;;;;;;;;;;;-2.60;99.90;;;;;;5073812;28;19920;-77
2021/12/11 01:48:24;;;;;;;;;;;-2.50;99.90;;;;;;5074441;28;19989;-77
2021/12/11 01:51:08;;;;;;;;;;;-2.60;99.90;;;;;;5072761;28;19920;-78
2021/12/11 01:53:41;;;;;;;;;;;-2.60;99.90;;;;;;5073281;28;19921;-78
2021/12/11 01:56:12;;;;;;;;;;;-2.70;99.90;;;;;;5073875;28;20023;-77
2021/12/11 01:58:50;;;;;;;;;;;-2.70;99.90;;;;;;5073910;28;20319;-78
2021/12/11 02:01:18;;;;;;;;;;;-2.70;99.90;;;;;;5074064;28;19921;-76
2021/12/11 02:03:44;;;;;;;;;;;-2.70;99.90;;;;;;5073748;28;19942;-77
2021/12/11 02:06:09;;;;;;;;;;;-2.60;99.90;;;;;;5072934;28;20030;-77
2021/12/11 02:08:37;;;;;;;;;;;-2.60;99.90;;;;;;5089556;28;19982;-77
2021/12/11 02:11:09;;;;;;;;;;;-2.40;99.90;;;;;;5073692;28;20383;-77
2021/12/11 02:13:41;;;;;;;;;;;-2.60;99.90;;;;;;5074138;28;19929;-77
2021/12/11 02:16:13;;;;;;;;;;;-2.60;99.90;;;;;;5073763;28;19920;-77
2021/12/11 02:18:43;;;;;;;;;;;-2.60;99.90;;;;;;5073774;28;19921;-77
2021/12/11 02:21:32;;;;;;;;;;;-2.60;99.90;;;;;;5072433;28;19920;-77
2021/12/11 02:23:58;;;;;;;;;;;-2.60;99.90;;;;;;5073971;28;19924;-77
2021/12/11 02:26:25;;;;;;;;;;;-2.60;99.90;;;;;;5073649;28;20015;-77
2021/12/11 02:28:54;;;;;;;;;;;-2.90;99.90;;;;;;5073536;28;20017;-76
2021/12/11 02:31:19;;;;;;;;;;;-2.90;99.90;;;;;;5073358;28;19935;-77
2021/12/11 02:33:49;;;;;;;;;;;-2.80;99.90;;;;;;5073267;28;19920;-76
2021/12/11 02:36:17;;;;;;;;;;;-2.90;99.90;;;;;;5073913;28;20007;-77
2021/12/11 02:38:49;;;;;;;;;;;-2.90;99.90;;;;;;5075132;28;19920;-78
2021/12/11 02:41:19;;;;;;;;;;;-3.00;99.90;;;;;;5077168;28;19921;-77
2021/12/11 02:43:50;;;;;;;;;;;-2.90;99.90;;;;;;5077045;28;19966;-77
2021/12/11 02:46:25;;;;;;;;;;;-3.00;99.90;;;;;;5076925;28;19935;-77
2021/12/11 02:48:54;;;;;;;;;;;-3.20;99.90;;;;;;5077542;28;19920;-78
2021/12/11 02:51:24;;;;;;;;;;;-3.20;99.90;;;;;;5077060;28;20314;-78
2021/12/11 02:53:55;;;;;;;;;;;-3.30;99.90;;;;;;5076066;28;20029;-77
2021/12/11 02:56:32;;;;;;;;;;;-3.30;99.90;;;;;;5076913;28;20361;-78
2021/12/11 02:59:04;;;;;;;;;;;-3.30;99.90;;;;;;5075723;28;20265;-78
2021/12/11 03:01:31;;;;;;;;;;;-3.40;99.90;;;;;;5076911;28;20323;-78
2021/12/11 03:04:22;;;;;;;;;;;-2.80;99.90;;;;;;5076812;28;20019;-78
2021/12/11 03:06:49;;;;;;;;;;;-3.20;99.90;;;;;;5076820;28;19921;-77
2021/12/11 03:09:17;;;;;;;;;;;-3.20;99.90;;;;;;5076683;28;20390;-77
2021/12/11 03:11:43;;;;;;;;;;;-3.20;99.90;;;;;;5076419;28;19920;-77
2021/12/11 03:14:12;;;;;;;;;;;-3.20;99.90;;;;;;5075367;28;20368;-77
2021/12/11 03:16:38;;;;;;;;;;;-3.50;99.90;;;;;;5076553;28;19920;-77
2021/12/11 03:19:04;;;;;;;;;;;-3.30;99.90;;;;;;5076522;28;19982;-78
2021/12/11 03:21:30;;;;;;;;;;;-3.30;99.90;;;;;;5076210;28;19938;-76
2021/12/11 03:23:56;;;;;;;;;;;-3.30;99.90;;;;;;5074695;28;19920;-76
2021/12/11 03:26:21;;;;;;;;;;;-2.40;99.90;;;;;;5076295;28;19924;-77
2021/12/11 03:28:47;;;;;;;;;;;-3.20;99.90;;;;;;5076272;28;20341;-77
2021/12/11 03:31:13;;;;;;;;;;;-2.90;99.90;;;;;;5076181;28;19927;-77
2021/12/11 03:33:41;;;;;;;;;;;-3.30;99.90;;;;;;5076261;28;19920;-77
2021/12/11 03:36:08;;;;;;;;;;;-3.20;99.90;;;;;;5076194;28;19928;-77
2021/12/11 03:38:34;;;;;;;;;;;-3.20;99.90;;;;;;5076224;28;19921;-77
2021/12/11 03:41:00;;;;;;;;;;;-3.20;99.90;;;;;;5076003;28;20261;-76
2021/12/11 03:43:27;;;;;;;;;;;-2.10;99.90;;;;;;5075871;28;19921;-77
2021/12/11 03:45:53;;;;;;;;;;;-3.30;99.90;;;;;;5076021;28;19920;-77
2021/12/11 03:48:25;;;;;;;;;;;-3.10;99.90;;;;;;5075849;28;19920;-77
2021/12/11 03:50:51;;;;;;;;;;;-3.30;99.90;;;;;;5075465;28;19920;-77
2021/12/11 03:53:18;;;;;;;;;;;-2.00;99.90;;;;;;5075833;28;19927;-77
2021/12/11 03:55:46;;;;;;;;;;;-2.20;99.90;;;;;;5075784;28;19924;-77
2021/12/11 03:58:12;;;;;;;;;;;-3.20;99.90;;;;;;5075830;28;19931;-77
2021/12/11 04:00:40;;;;;;;;;;;-2.30;99.90;;;;;;5074942;28;20303;-77
2021/12/11 04:03:07;;;;;;;;;;;-3.10;99.90;;;;;;5075592;28;19927;-77
2021/12/11 04:05:38;;;;;;;;;;;-3.10;99.90;;;;;;5075636;28;19920;-77
2021/12/11 04:08:05;;;;;;;;;;;-3.00;99.90;;;;;;5075533;28;19920;-77
2021/12/11 04:10:31;;;;;;;;;;;-3.10;99.90;;;;;;5075575;28;20311;-77
2021/12/11 04:12:59;;;;;;;;;;;-3.10;99.90;;;;;;5091143;28;20028;-78
2021/12/11 04:15:24;;;;;;;;;;;-3.10;99.90;;;;;;5075476;28;19920;-76
2021/12/11 04:17:51;;;;;;;;;;;-3.10;99.90;;;;;;5075241;28;20276;-77
2021/12/11 04:20:19;;;;;;;;;;;-3.10;99.90;;;;;;5091074;28;19920;-77
2021/12/11 04:22:44;;;;;;;;;;;-3.10;99.90;;;;;;5075142;28;20302;-76
2021/12/11 04:25:11;;;;;;;;;;;-3.10;99.90;;;;;;5091441;28;19920;-77
2021/12/11 04:27:37;;;;;;;;;;;-3.10;99.90;;;;;;5075138;28;19920;-77
2021/12/11 04:30:04;;;;;;;;;;;-3.10;99.90;;;;;;5075158;28;19943;-77
2021/12/11 04:32:33;;;;;;;;;;;-3.10;99.90;;;;;;5075102;28;19924;-77
2021/12/11 04:34:59;;;;;;;;;;;-1.90;99.90;;;;;;5075013;28;19920;-77
2021/12/11 04:37:27;;;;;;;;;;;-1.50;99.90;;;;;;5074926;28;19979;-77
2021/12/11 04:39:58;;;;;;;;;;;-3.10;99.90;;;;;;5074875;28;19971;-77
2021/12/11 04:42:41;;;;;;;;;;;-3.30;99.90;;;;;;5074731;28;19928;-76
2021/12/11 04:45:12;;;;;;;;;;;-1.60;99.90;;;;;;5074208;28;19960;-77
2021/12/11 04:50:10;;;;;;;;;;;-1.50;99.90;;;;;;5074826;28;19921;-77
2021/12/11 04:52:50;;;;;;;;;;;-3.20;99.90;;;;;;5074439;28;19928;-77
2021/12/11 05:00:55;;;;;;;;;;;-3.20;99.90;;;;;;5074496;28;20446;-77
2021/12/11 05:11:17;;;;;;;;;;;-3.20;99.90;;;;;;5074308;28;19920;-77
2021/12/11 05:13:43;;;;;;;;;;;-3.20;99.90;;;;;;5074423;28;19920;-77
2021/12/11 05:16:10;;;;;;;;;;;-3.20;99.90;;;;;;5089896;28;19927;-77
2021/12/11 05:18:36;;;;;;;;;;;-3.20;99.90;;;;;;5074504;28;19928;-77
2021/12/11 05:21:05;;;;;;;;;;;-2.20;99.90;;;;;;5089914;28;19924;-77
2021/12/11 05:23:31;;;;;;;;;;;-1.60;99.90;;;;;;5074149;28;19920;-77
2021/12/11 05:25:57;;;;;;;;;;;-2.10;99.90;;;;;;5074194;28;20264;-77
2021/12/11 05:28:22;;;;;;;;;;;-3.10;99.90;;;;;;5074658;28;19969;-77
2021/12/11 05:30:49;;;;;;;;;;;-2.10;99.90;;;;;;5074164;28;19924;-77
2021/12/11 05:33:15;;;;;;;;;;;-3.20;99.90;;;;;;5089807;28;20039;-77
2021/12/11 05:35:41;;;;;;;;;;;-3.20;99.90;;;;;;5073834;28;19970;-77
2021/12/11 05:38:09;;;;;;;;;;;-1.90;99.90;;;;;;5073860;28;19924;-77
2021/12/11 05:40:37;;;;;;;;;;;-3.20;99.90;;;;;;5089681;28;19926;-76
2021/12/11 05:43:03;;;;;;;;;;;-3.10;99.90;;;;;;5073969;28;20019;-76
2021/12/11 05:45:28;;;;;;;;;;;-3.20;99.90;;;;;;5074067;28;19974;-77
2021/12/11 05:47:55;;;;;;;;;;;-2.40;99.90;;;;;;5074267;28;19924;-77
2021/12/11 05:50:28;;;;;;;;;;;-2.70;99.90;;;;;;5073906;28;19920;-77
2021/12/11 05:52:54;;;;;;;;;;;-3.20;99.90;;;;;;5074068;28;19980;-77
2021/12/11 05:55:20;;;;;;;;;;;-3.10;99.90;;;;;;5073790;28;19968;-76
2021/12/11 05:57:52;;;;;;;;;;;-1.60;99.90;;;;;;5073928;28;19920;-77
2021/12/11 06:00:18;;;;;;;;;;;-2.10;99.90;;;;;;5073958;28;20327;-77
2021/12/11 06:02:44;;;;;;;;;;;-3.00;99.90;;;;;;5073803;28;19927;-76
2021/12/11 06:05:10;;;;;;;;;;;-2.90;99.90;;;;;;5073739;28;19924;-77
2021/12/11 06:07:37;;;;;;;;;;;-2.90;99.90;;;;;;5073738;28;19925;-76
2021/12/11 06:10:08;;;;;;;;;;;-2.80;99.90;;;;;;5073755;28;19921;-77
2021/12/11 06:12:34;;;;;;;;;;;-2.90;99.90;;;;;;5073885;28;19965;-77
2021/12/11 06:14:59;;;;;;;;;;;-1.30;99.90;;;;;;5077803;28;19924;-77
2021/12/11 06:17:27;;;;;;;;;;;-3.00;99.90;;;;;;5077871;28;19949;-77
2021/12/11 06:19:53;;;;;;;;;;;-2.80;99.90;;;;;;5077575;28;19920;-77
2021/12/11 06:22:20;;;;;;;;;;;-2.30;99.90;;;;;;5077277;28;20390;-76
2021/12/11 06:24:46;;;;;;;;;;;-2.90;99.90;;;;;;5077977;28;19963;-76
2021/12/11 06:27:12;;;;;;;;;;;-2.90;99.90;;;;;;5077584;28;20434;-76
2021/12/11 06:29:38;;;;;;;;;;;-2.90;99.90;;;;;;5077303;28;20387;-77
2021/12/11 06:32:04;;;;;;;;;;;-2.60;99.90;;;;;;5077446;28;19920;-76
2021/12/11 06:34:31;;;;;;;;;;;-2.90;99.90;;;;;;5077283;28;19926;-76
2021/12/11 06:36:57;;;;;;;;;;;-2.90;99.90;;;;;;5077399;28;19966;-77
2021/12/11 06:39:23;;;;;;;;;;;-2.90;99.90;;;;;;5077269;28;20364;-77
2021/12/11 06:41:50;;;;;;;;;;;-2.90;99.90;;;;;;5077214;28;19920;-77
2021/12/11 06:44:16;;;;;;;;;;;-2.90;99.90;;;;;;5075901;28;19972;-75
2021/12/11 06:46:42;;;;;;;;;;;-2.90;99.90;;;;;;5077146;28;19924;-76
2021/12/11 06:49:08;;;;;;;;;;;-3.00;99.90;;;;;;5076833;28;19926;-77
2021/12/11 06:51:34;;;;;;;;;;;-2.50;99.90;;;;;;5077144;28;20305;-76
2021/12/11 06:54:02;;;;;;;;;;;-3.10;99.90;;;;;;5077587;28;19943;-75
2021/12/11 06:56:28;;;;;;;;;;;-3.10;99.90;;;;;;5077048;28;19920;-77
2021/12/11 06:58:54;;;;;;;;;;;-3.20;99.90;;;;;;5076679;28;19920;-77
2021/12/11 07:01:21;;;;;;;;;;;-3.20;99.90;;;;;;5077033;28;19921;-76
2021/12/11 07:03:47;;;;;;;;;;;-1.70;99.90;;;;;;5076779;28;19924;-77
2021/12/11 07:06:12;;;;;;;;;;;-3.20;99.90;;;;;;5076761;28;19920;-77
2021/12/11 07:08:39;;;;;;;;;;;-3.20;99.90;;;;;;5076789;28;19973;-77
2021/12/11 07:11:06;;;;;;;;;;;-3.20;99.90;;;;;;5076567;28;19920;-77
2021/12/11 07:13:32;;;;;;;;;;;-3.20;99.90;;;;;;5076675;28;20402;-77
2021/12/11 07:15:57;;;;;;;;;;;-3.30;99.90;;;;;;5075586;28;19920;-77
2021/12/11 07:18:23;;;;;;;;;;;-2.90;99.90;;;;;;5091895;28;19920;-78
2021/12/11 07:20:49;;;;;;;;;;;-3.40;99.90;;;;;;5076567;28;19921;-77
2021/12/11 07:23:15;;;;;;;;;;;-3.40;99.90;;;;;;5076334;28;19920;-78
2021/12/11 07:25:47;;;;;;;;;;;-3.40;99.90;;;;;;5074981;28;19920;-77
2021/12/11 07:28:12;;;;;;;;;;;-3.30;99.90;;;;;;5076488;28;19925;-77
2021/12/11 07:30:39;;;;;;;;;;;-3.20;99.90;;;;;;5076460;28;19928;-78
2021/12/11 07:33:05;;;;;;;;;;;-3.30;99.90;;;;;;5076335;28;19920;-77
2021/12/11 07:35:32;;;;;;;;;;;-2.30;99.90;;;;;;5076274;28;20107;-77
2021/12/11 07:37:58;;;;;;;;;;;-3.20;99.90;;;;;;5076188;28;19921;-77
2021/12/11 07:40:25;;;;;;;;;;;-2.50;99.90;;;;;;5076222;28;20299;-76
2021/12/11 07:42:51;;;;;;;;;;;-3.20;99.90;;;;;;5091710;28;20346;-76
2021/12/11 07:45:17;;;;;;;;;;;-3.20;99.90;;;;;;5076114;28;19924;-78
2021/12/11 07:47:42;;;;;;;;;;;-2.80;99.90;;;;;;5075722;28;20355;-78
2021/12/11 07:50:09;;;;;;;;;;;-3.00;99.90;;;;;;5076425;28;19960;-76
2021/12/11 07:52:35;;;;;;;;;;;-3.20;99.90;;;;;;5076011;28;20037;-77
2021/12/11 07:55:00;;;;;;;;;;;-3.20;99.90;;;;;;5075898;28;19926;-76
2021/12/11 07:57:26;;;;;;;;;;;-2.60;99.90;;;;;;5075947;28;19920;-78
2021/12/11 07:59:51;;;;;;;;;;;-3.30;99.90;;;;;;5074815;28;19924;-76
2021/12/11 08:02:17;;;;;;;;;;;-3.30;99.90;;;;;;5075725;28;19924;-78
2021/12/11 08:04:43;;;;;;;;;;;-3.30;99.90;;;;;;5075858;28;19920;-77
2021/12/11 08:07:08;;;;;;;;;;;-3.30;99.90;;;;;;5076147;28;19920;-77
2021/12/11 08:09:34;;;;;;;;;;;-2.10;99.90;;;;;;5075478;28;20014;-77
2021/12/11 08:12:00;;;;;;;;;;;-1.50;99.90;;;;;;5075410;28;19932;-75
2021/12/11 08:14:26;;;;;;;;;;;-3.20;99.90;;;;;;5075517;28;19973;-77
2021/12/11 08:16:56;;;;;;;;;;;-3.20;99.90;;;;;;5092850;28;20380;-77
2021/12/11 08:19:22;;;;;;;;;;;-3.10;99.90;;;;;;5095677;28;19934;-78
2021/12/11 08:21:49;;;;;;;;;;;-2.20;99.90;;;;;;5095393;28;20452;-76
2021/12/11 08:24:15;;;;;;;;;;;-3.20;99.90;;;;;;5095520;28;20010;-76
2021/12/11 08:26:41;;;;;;;;;;;-3.10;99.90;;;;;;5096654;28;19967;-77
2021/12/11 08:29:08;;;;;;;;;;;-3.20;99.90;;;;;;5096092;28;19975;-77
2021/12/11 08:31:34;;;;;;;;;;;-3.10;99.90;;;;;;5095414;28;19978;-76
2021/12/11 08:33:59;;;;;;;;;;;-3.00;99.90;;;;;;5095447;28;19920;-77
2021/12/11 08:36:25;;;;;;;;;;;-2.90;99.90;;;;;;5095051;28;20368;-76
2021/12/11 08:38:51;;;;;;;;;;;-2.80;99.90;;;;;;5095223;28;19963;-79
2021/12/11 08:41:18;;;;;;;;;;;-2.90;99.90;;;;;;5095376;28;19927;-78
2021/12/11 08:43:46;;;;;;;;;;;-2.50;99.90;;;;;;5095137;28;19978;-78
2021/12/11 08:46:23;;;;;;;;;;;-2.80;99.90;;;;;;5095066;28;19924;-76
2021/12/11 08:48:48;;;;;;;;;;;-1.00;99.90;;;;;;5095104;28;19920;-77
2021/12/11 08:51:17;;;;;;;;;;;-2.70;99.90;;;;;;5095024;28;19920;-78
2021/12/11 08:53:42;;;;;;;;;;;-2.60;99.90;;;;;;5094894;28;19920;-77
2021/12/11 08:56:09;;;;;;;;;;;-2.70;99.90;;;;;;5094915;28;19977;-80
2021/12/11 08:58:35;;;;;;;;;;;-2.60;99.90;;;;;;5094905;28;20276;-76
2021/12/11 09:01:12;;;;;;;;;;;-2.50;99.90;;;;;;5094763;28;19926;-79
2021/12/11 09:03:47;;;;;;;;;;;-2.50;99.90;;;;;;5094498;28;19920;-79
2021/12/11 09:06:18;;;;;;;;;;;-2.50;99.90;;;;;;5094796;28;20326;-78
2021/12/11 09:08:57;;;;;;;;;;;-2.40;99.90;;;;;;5094640;28;20367;-80
2021/12/11 09:11:26;;;;;;;;;;;-2.30;99.90;;;;;;5094695;28;19974;-78
2021/12/11 09:13:58;;;;;;;;;;;-2.20;99.90;;;;;;5094664;28;19938;-80
2021/12/11 09:16:30;;;;;;;;;;;-2.20;99.90;;;;;;5094647;28;19920;-79
2021/12/11 09:19:05;;;;;;;;;;;-2.10;99.90;;;;;;5094642;28;19919;-78
2021/12/11 09:21:34;;;;;;;;;;;-2.00;99.90;;;;;;5093804;28;19927;-79
2021/12/11 09:24:04;;;;;;;;;;;-1.90;99.90;;;;;;5094553;28;19928;-77
2021/12/11 09:26:39;;;;;;;;;;;-1.80;99.90;;;;;;5094910;28;19927;-77
2021/12/11 09:29:15;;;;;;;;;;;-1.80;99.90;;;;;;5094665;28;19920;-77
2021/12/11 09:32:00;;;;;;;;;;;-1.70;99.90;;;;;;5094700;28;20283;-76
2021/12/11 09:34:28;;;;;;;;;;;-1.60;99.90;;;;;;5094458;28;19924;-78
2021/12/11 09:36:58;;;;;;;;;;;-1.50;99.90;;;;;;5094448;28;19927;-75
2021/12/11 09:39:26;;;;;;;;;;;-1.50;99.90;;;;;;5094326;28;19920;-80
2021/12/11 09:41:51;;;;;;;;;;;-1.40;99.90;;;;;;5094213;28;19924;-79
2021/12/11 09:44:20;;;;;;;;;;;-1.30;99.90;;;;;;5094183;28;19920;-77
2021/12/11 09:46:49;;;;;;;;;;;-1.30;99.90;;;;;;5093902;28;19967;-79
2021/12/11 09:49:19;;;;;;;;;;;-1.20;99.90;;;;;;5093464;28;20011;-78
2021/12/11 09:51:46;;;;;;;;;;;-1.10;99.90;;;;;;5094129;28;19988;-80
2021/12/11 09:54:14;;;;;;;;;;;-1.40;99.90;;;;;;5094489;28;20068;-75
2021/12/11 09:56:42;;;;;;;;;;;-1.00;99.90;;;;;;5094106;28;20418;-76
2021/12/11 09:59:09;;;;;;;;;;;-0.90;99.90;;;;;;5094154;28;19927;-79
2021/12/11 10:01:37;;;;;;;;;;;-0.90;99.90;;;;;;5094234;28;19927;-77
2021/12/11 10:04:13;;;;;;;;;;;-0.80;99.90;;;;;;5094150;28;20073;-76
2021/12/11 10:06:51;;;;;;;;;;;-0.70;99.90;;;;;;5094474;28;19927;-78
2021/12/11 10:09:18;;;;;;;;;;;-0.50;99.90;;;;;;5094011;28;20389;-76
2021/12/11 10:12:04;;;;;;;;;;;-0.60;99.90;;;;;;5093994;28;19920;-77
2021/12/11 10:14:35;;;;;;;;;;;-0.50;99.90;;;;;;5093333;28;20011;-75
2021/12/11 10:17:15;;;;;;;;;;;-0.50;99.90;;;;;;5094191;28;19920;-76
2021/12/11 10:19:42;;;;;;;;;;;-0.40;99.90;;;;;;5093901;28;20280;-77
2021/12/11 10:22:11;;;;;;;;;;;-0.40;99.90;;;;;;5093697;28;19924;-76
2021/12/11 10:24:37;;;;;;;;;;;0.00;99.90;;;;;;5094371;28;19920;-77
2021/12/11 10:27:04;;;;;;;;;;;-0.20;99.90;;;;;;5093747;28;19927;-75
2021/12/11 10:29:30;;;;;;;;;;;-0.10;99.90;;;;;;5094166;28;19927;-74
2021/12/11 10:31:59;;;;;;;;;;;0.10;99.90;;;;;;5093616;28;19920;-75
2021/12/11 10:34:26;;;;;;;;;;;0.00;99.90;;;;;;5093618;28;19924;-75
2021/12/11 10:37:04;;;;;;;;;;;0.10;99.90;;;;;;5093526;28;19969;-75
2021/12/11 10:39:29;;;;;;;;;;;0.10;99.90;;;;;;5093646;28;19927;-82
2021/12/11 10:41:56;;;;;;;;;;;0.40;99.90;;;;;;5093886;28;20291;-77
2021/12/11 10:44:24;;;;;;;;;;;0.20;99.90;;;;;;5093840;28;20413;-78
2021/12/11 10:46:54;;;;;;;;;;;0.50;99.90;;;;;;5093616;28;20002;-77
2021/12/11 10:49:20;;;;;;;;;;;0.40;99.90;;;;;;5093576;28;19970;-77
2021/12/11 10:51:47;;;;;;;;;;;0.30;99.90;;;;;;5093705;28;20352;-76
2021/12/11 10:54:14;;;;;;;;;;;0.50;99.90;;;;;;5093504;28;19927;-78
2021/12/11 10:56:40;;;;;;;;;;;0.50;99.90;;;;;;5093806;28;20035;-75
2021/12/11 10:59:11;;;;;;;;;;;0.60;99.90;;;;;;5094288;28;19924;-75
2021/12/11 11:01:42;;;;;;;;;;;0.70;99.90;;;;;;5097167;28;19927;-75
2021/12/11 11:04:11;;;;;;;;;;;0.70;99.90;;;;;;5096978;28;19920;-80
2021/12/11 11:06:37;;;;;;;;;;;0.80;99.90;;;;;;5079025;28;19969;-79
2021/12/11 11:09:04;;;;;;;;;;;1.10;99.90;;;;;;5096977;28;19919;-81
2021/12/11 11:11:31;;;;;;;;;;;1.00;99.90;;;;;;5097076;28;19931;-79
2021/12/11 11:13:57;;;;;;;;;;;1.00;99.90;;;;;;5096878;28;19975;-81
2021/12/11 11:16:22;;;;;;;;;;;1.10;99.90;;;;;;5095900;28;20080;-79
2021/12/11 11:18:48;;;;;;;;;;;1.10;99.90;;;;;;5096000;28;19920;-80
2021/12/11 11:21:14;;;;;;;;;;;1.30;99.90;;;;;;5095676;28;19963;-79
2021/12/11 11:23:41;;;;;;;;;;;1.30;99.90;;;;;;5096796;28;20320;-79
2021/12/11 11:26:09;;;;;;;;;;;1.40;99.90;;;;;;5096612;28;19973;-79
2021/12/11 11:28:34;;;;;;;;;;;1.40;99.90;;;;;;5095511;28;19920;-79
2021/12/11 11:31:03;;;;;;;;;;;1.50;99.90;;;;;;5096385;28;20292;-78
2021/12/11 11:33:29;;;;;;;;;;;1.70;99.90;;;;;;5095401;28;19927;-79
2021/12/11 11:35:56;;;;;;;;;;;1.70;99.90;;;;;;5078708;28;19973;-77
2021/12/11 11:38:24;;;;;;;;;;;1.70;99.90;;;;;;5096832;28;19924;-80
2021/12/11 11:40:53;;;;;;;;;;;1.70;99.90;;;;;;5096608;28;19920;-80
2021/12/11 11:43:19;;;;;;;;;;;1.80;99.90;;;;;;5095238;28;19941;-78
2021/12/11 11:45:46;;;;;;;;;;;1.80;99.90;;;;;;5096238;28;20006;-79
2021/12/11 11:48:12;;;;;;;;;;;1.20;99.90;;;;;;5096169;28;19987;-80
2021/12/11 11:50:41;;;;;;;;;;;1.90;99.90;;;;;;5096065;28;19974;-78
2021/12/11 11:53:06;;;;;;;;;;;1.90;99.90;;;;;;5096095;28;19926;-81
2021/12/11 11:55:34;;;;;;;;;;;2.00;99.90;;;;;;5095677;28;19920;-79
2021/12/11 11:58:00;;;;;;;;;;;2.00;99.90;;;;;;5095930;28;19920;-82
2021/12/11 12:00:41;;;;;;;;;;;2.00;99.90;;;;;;5095987;28;19954;-80
2021/12/11 12:03:11;;;;;;;;;;;2.10;99.90;;;;;;5096261;28;19981;-79
2021/12/11 12:05:37;;;;;;;;;;;2.10;99.90;;;;;;5095847;28;19927;-80
2021/12/11 12:08:04;;;;;;;;;;;2.10;99.90;;;;;;5096003;28;20360;-80
2021/12/11 12:10:30;;;;;;;;;;;2.20;99.90;;;;;;5093704;28;19920;-78
2021/12/11 12:12:55;;;;;;;;;;;2.20;99.90;;;;;;5094985;28;20404;-80
2021/12/11 12:15:41;;;;;;;;;;;2.30;99.90;;;;;;5095542;28;19923;-79
2021/12/11 12:18:06;;;;;;;;;;;2.30;99.90;;;;;;5095606;28;19920;-78
2021/12/11 12:20:32;;;;;;;;;;;2.30;99.90;;;;;;5094083;28;19927;-81
2021/12/11 12:22:58;;;;;;;;;;;3.20;99.90;;;;;;5094087;28;19920;-79
2021/12/11 12:25:24;;;;;;;;;;;2.10;99.90;;;;;;5095122;28;19942;-82
2021/12/11 12:27:50;;;;;;;;;;;1.80;99.90;;;;;;5094109;28;20385;-78
2021/12/11 12:30:24;;;;;;;;;;;2.50;99.90;;;;;;5095517;28;19919;-77
2021/12/11 12:32:52;;;;;;;;;;;2.30;99.90;;;;;;5095655;28;19920;-77
2021/12/11 12:35:19;;;;;;;;;;;1.00;99.90;;;;;;5095488;28;19942;-83
2021/12/11 12:37:45;;;;;;;;;;;2.30;99.90;;;;;;5094786;28;19920;-75
2021/12/11 12:40:27;;;;;;;;;;;2.30;99.90;;;;;;5095081;28;19926;-79
2021/12/11 12:42:55;;;;;;;;;;;2.30;99.90;;;;;;5095041;28;19923;-78
2021/12/11 12:45:21;;;;;;;;;;;2.40;99.90;;;;;;5095138;28;20012;-78
2021/12/11 12:48:17;;;;;;;1.20;1.10;;;2.30;99.90;;;;;;5132011;27;20642;-80
2021/12/11 12:50:49;;;;;;;3.97;2.20;;;2.40;99.90;;;;;;5131330;27;20043;-79
2021/12/11 12:53:16;;;;;;;1.40;1.00;;;2.40;99.90;;;;;;5131954;27;20039;-76
2021/12/11 12:55:48;;;;;;;4.70;1.77;;;2.40;99.90;;;;;;5131770;27;20043;-77
2021/12/11 12:58:18;;;;;;;1.15;1.00;;;2.40;99.90;;;;;;5131392;27;20403;-76
2021/12/11 13:00:49;;;;;;;0.93;0.93;;;2.40;99.90;;;;;;5131781;27;20116;-79
2021/12/11 13:03:19;;;;;;;1.60;1.50;;;2.40;99.90;;;;;;5130597;28;20048;-77
2021/12/11 13:05:55;;;;;;;2.47;2.05;;;2.40;99.90;;;;;;5131533;27;20084;-78
2021/12/11 13:08:27;;;;;;;1.45;1.35;;;2.40;99.90;;;;;;5130403;28;20487;-78
2021/12/11 13:10:57;;;;;;;2.05;1.73;;;2.40;99.90;;;;;;5131241;27;20042;-77
2021/12/11 13:13:25;;;;;;;5.35;2.45;;;2.40;99.90;;;;;;5131398;27;20126;-78
2021/12/11 13:16:02;;;;;;;1.00;1.00;;;2.40;99.90;;;;;;5130809;27;20044;-76
2021/12/11 13:18:31;;;;;;;2.78;1.23;;;2.40;99.90;;;;;;5131448;27;20039;-78
2021/12/11 13:21:21;;;;;;;1.95;1.77;;;2.30;99.90;;;;;;5131144;27;20047;-78
2021/12/11 13:23:49;;;;;;;2.28;2.15;;;2.40;99.90;;;;;;5130587;27;20055;-77
2021/12/11 13:26:18;;;;;;;2.05;1.40;;;2.30;99.90;;;;;;5130606;27;20043;-77
2021/12/11 13:28:50;;;;;;;0.60;0.60;;;2.30;99.90;;;;;;5131238;27;20062;-77
2021/12/11 13:31:23;;;;;;;1.27;1.17;;;2.30;99.90;;;;;;5131155;27;20047;-79
2021/12/11 13:33:51;;;;;;;0.80;0.80;;;2.30;99.90;;;;;;5131269;27;20050;-77
2021/12/11 13:36:19;;;;;;;1.25;1.15;;;2.30;99.90;;;;;;5130826;27;20387;-77
2021/12/11 13:38:45;;;;;;;4.50;3.22;;;2.30;99.90;;;;;;5130787;27;20053;-78
2021/12/11 13:41:43;;;;;;;2.00;1.90;;;2.30;99.90;;;;;;5130840;28;20154;-79
2021/12/11 13:44:09;;;;;;;3.83;3.47;;;2.30;99.90;;;;;;5118532;27;20051;-79
2021/12/11 13:46:36;;;;;;;1.27;1.17;;;3.10;99.90;;;;;;5130610;27;20399;-78
2021/12/11 13:49:03;;;;;;;3.03;2.30;;;2.20;99.90;;;;;;5130779;27;20052;-78
2021/12/11 13:51:31;;;;;;;2.25;1.70;;;2.00;99.90;;;;;;5130260;27;20047;-79
2021/12/11 13:53:58;;;;;;;2.45;2.25;;;1.80;99.90;;;;;;5130414;27;20085;-77
2021/12/11 13:56:29;;;;;;;2.60;1.95;;;1.70;99.90;;;;;;5130800;27;20047;-76
2021/12/11 13:58:55;;;;;;;2.35;1.80;;;1.50;99.90;;;;;;5120390;27;20054;-78
2021/12/11 14:01:25;;;;;;;1.50;1.40;;;1.40;99.90;;;;;;5116981;28;20547;-78
2021/12/11 14:03:54;;;;;;;4.00;3.30;;;1.40;99.90;;;;;;5116674;28;20031;-77
2021/12/11 14:06:21;;;;;;;1.05;1.05;;;1.30;99.90;;;;;;5116507;28;20047;-76
2021/12/11 14:08:48;;;;;;;1.50;1.40;;;1.10;99.90;;;;;;5116577;28;20127;-77
2021/12/11 14:11:16;;;;;;;2.25;1.42;;;1.30;99.90;;;;;;5116902;28;20074;-78
2021/12/11 14:13:43;;;;;;;6.10;2.47;;;1.00;99.90;;;;;;5116481;28;20043;-78
2021/12/11 14:16:12;;;;;;;;;;;0.90;99.90;;;;;;5116866;27;20380;-78
2021/12/11 14:18:38;;;;;;;1.35;1.25;;;0.80;99.90;;;;;;5116047;28;19996;-76
2021/12/11 14:21:07;;;;;;;0.90;0.90;;;0.80;99.90;;;;;;5115544;28;20043;-76
2021/12/11 14:23:37;;;;;;;0.77;0.77;;;0.70;99.90;;;;;;5149346;27;20446;-78
2021/12/11 14:26:06;;;;;;;13.60;3.63;;;0.60;99.90;;;;;;5116177;28;20090;-76
2021/12/11 14:28:32;;;;;;;1.60;1.50;;;0.60;99.90;;;;;;5116099;28;20059;-78
2021/12/11 14:31:06;;;;;;;0.80;0.80;;;1.30;99.90;;;;;;5114857;28;20036;-77
2021/12/11 14:33:33;;;;;;;1.63;0.85;;;0.60;99.90;;;;;;5116376;28;20040;-78
2021/12/11 14:36:00;;;;;;;2.05;1.90;;;0.60;99.90;;;;;;5116305;28;20421;-78